sensor_id;sensor_type;location;lat;lon;timestamp;temperature;humidity
63407;SHT31;49543;45.892;10.838;2023-01-10T08:11:43;5.28;85.05
63407;SHT31;49543;45.892;10.838;2023-01-10T09:36:22;9.89;72.55
63407;SHT31;49543;45.892;10.838;2023-01-10T09:38:47;9.93;70.05
63407;SHT31;49543;45.892;10.838;2023-01-10T09:41:18;10.07;71.22
63407;SHT31;49543;45.892;10.838;2023-01-10T09:53:57;10.70;69.87
63407;SHT31;49543;45.892;10.838;2023-01-10T09:56:27;10.84;67.77
63407;SHT31;49543;45.892;10.838;2023-01-10T09:58:53;11.04;68.59
63407;SHT31;49543;45.892;10.838;2023-01-10T10:01:20;11.31;70.23
63407;SHT31;49543;45.892;10.838;2023-01-10T10:06:15;11.72;69.91
63407;SHT31;49543;45.892;10.838;2023-01-10T10:08:41;11.87;68.31
63407;SHT31;49543;45.892;10.838;2023-01-10T10:13:39;12.38;69.60
63407;SHT31;49543;45.892;10.838;2023-01-10T10:17:10;12.56;67.13
63407;SHT31;49543;45.892;10.838;2023-01-10T10:24:29;12.89;62.23
63407;SHT31;49543;45.892;10.838;2023-01-10T10:26:59;12.96;62.05
63407;SHT31;49543;45.892;10.838;2023-01-10T10:34:46;13.46;63.81
63407;SHT31;49543;45.892;10.838;2023-01-10T10:39:50;13.69;60.71
63407;SHT31;49543;45.892;10.838;2023-01-10T10:42:17;13.83;60.07
63407;SHT31;49543;45.892;10.838;2023-01-10T10:45:02;14.10;60.52
63407;SHT31;49543;45.892;10.838;2023-01-10T10:47:33;14.29;58.39
63407;SHT31;49543;45.892;10.838;2023-01-10T10:50:17;14.48;59.41
63407;SHT31;49543;45.892;10.838;2023-01-10T10:52:46;14.61;56.65
63407;SHT31;49543;45.892;10.838;2023-01-10T10:55:12;14.81;58.07
63407;SHT31;49543;45.892;10.838;2023-01-10T10:57:39;15.03;60.86
63407;SHT31;49543;45.892;10.838;2023-01-10T11:00:06;15.34;62.05
63407;SHT31;49543;45.892;10.838;2023-01-10T11:02:42;15.42;59.85
63407;SHT31;49543;45.892;10.838;2023-01-10T11:05:20;15.63;59.98
63407;SHT31;49543;45.892;10.838;2023-01-10T11:07:47;15.92;60.84
63407;SHT31;49543;45.892;10.838;2023-01-10T11:10:15;15.92;56.57
63407;SHT31;49543;45.892;10.838;2023-01-10T11:15:58;16.52;57.25
63407;SHT31;49543;45.892;10.838;2023-01-10T11:18:26;16.61;55.49
63407;SHT31;49543;45.892;10.838;2023-01-10T11:20:58;16.87;56.28
63407;SHT31;49543;45.892;10.838;2023-01-10T11:23:27;16.96;54.10
63407;SHT31;49543;45.892;10.838;2023-01-10T11:25:55;17.18;53.73
63407;SHT31;49543;45.892;10.838;2023-01-10T11:28:22;17.26;54.86
63407;SHT31;49543;45.892;10.838;2023-01-10T11:30:50;17.35;55.60
63407;SHT31;49543;45.892;10.838;2023-01-10T11:33:17;17.43;56.64
63407;SHT31;49543;45.892;10.838;2023-01-10T11:35:54;17.63;56.02
63407;SHT31;49543;45.892;10.838;2023-01-10T11:38:20;17.70;53.50
63407;SHT31;49543;45.892;10.838;2023-01-10T11:43:29;17.94;51.75
63407;SHT31;49543;45.892;10.838;2023-01-10T11:46:19;18.16;51.38
63407;SHT31;49543;45.892;10.838;2023-01-10T11:48:52;18.26;49.43
63407;SHT31;49543;45.892;10.838;2023-01-10T11:51:26;18.46;49.95
63407;SHT31;49543;45.892;10.838;2023-01-10T11:54:00;18.64;49.83
63407;SHT31;49543;45.892;10.838;2023-01-10T11:56:30;18.76;50.13
63407;SHT31;49543;45.892;10.838;2023-01-10T11:58:59;18.79;50.61
63407;SHT31;49543;45.892;10.838;2023-01-10T12:01:41;18.90;52.73
63407;SHT31;49543;45.892;10.838;2023-01-10T12:04:16;18.98;52.00
63407;SHT31;49543;45.892;10.838;2023-01-10T12:06:49;19.01;53.59
63407;SHT31;49543;45.892;10.838;2023-01-10T12:09:32;18.79;52.11
63407;SHT31;49543;45.892;10.838;2023-01-10T12:14:45;18.35;49.11
63407;SHT31;49543;45.892;10.838;2023-01-10T12:19:45;18.21;51.86
63407;SHT31;49543;45.892;10.838;2023-01-10T12:22:13;18.38;52.56
63407;SHT31;49543;45.892;10.838;2023-01-10T12:24:41;18.59;52.67
63407;SHT31;49543;45.892;10.838;2023-01-10T12:27:11;18.73;56.91
63407;SHT31;49543;45.892;10.838;2023-01-10T12:29:51;18.77;55.20
63407;SHT31;49543;45.892;10.838;2023-01-10T12:32:23;17.62;45.84
63407;SHT31;49543;45.892;10.838;2023-01-10T12:34:56;16.83;49.69
63407;SHT31;49543;45.892;10.838;2023-01-10T12:40:03;15.61;51.59
63407;SHT31;49543;45.892;10.838;2023-01-10T12:42:53;15.20;51.17
63407;SHT31;49543;45.892;10.838;2023-01-10T12:45:52;14.91;53.35
63407;SHT31;49543;45.892;10.838;2023-01-10T18:06:48;10.15;61.50
63407;SHT31;49543;45.892;10.838;2023-01-10T18:09:17;10.08;61.36
63407;SHT31;49543;45.892;10.838;2023-01-10T18:11:42;10.05;60.46
63407;SHT31;49543;45.892;10.838;2023-01-10T18:14:08;10.05;55.94
63407;SHT31;49543;45.892;10.838;2023-01-10T18:16:52;10.08;55.04
63407;SHT31;49543;45.892;10.838;2023-01-10T18:19:17;10.14;55.28
63407;SHT31;49543;45.892;10.838;2023-01-10T18:21:43;10.11;53.80
63407;SHT31;49543;45.892;10.838;2023-01-10T18:24:08;10.17;51.82
63407;SHT31;49543;45.892;10.838;2023-01-10T18:26:34;10.22;51.83
63407;SHT31;49543;45.892;10.838;2023-01-10T18:28:59;10.22;52.46
63407;SHT31;49543;45.892;10.838;2023-01-10T18:31:25;10.25;52.36
63407;SHT31;49543;45.892;10.838;2023-01-10T18:33:51;10.31;54.36
63407;SHT31;49543;45.892;10.838;2023-01-10T18:36:21;10.24;53.02
63407;SHT31;49543;45.892;10.838;2023-01-10T18:38:48;10.18;54.51
63407;SHT31;49543;45.892;10.838;2023-01-10T18:41:16;10.11;54.97
63407;SHT31;49543;45.892;10.838;2023-01-10T18:43:42;10.11;55.84
63407;SHT31;49543;45.892;10.838;2023-01-10T18:46:13;10.11;54.15
63407;SHT31;49543;45.892;10.838;2023-01-10T18:48:41;10.08;54.79
63407;SHT31;49543;45.892;10.838;2023-01-10T18:51:07;10.08;53.63
63407;SHT31;49543;45.892;10.838;2023-01-10T18:53:34;10.08;53.66
63407;SHT31;49543;45.892;10.838;2023-01-10T18:56:01;10.01;56.92
63407;SHT31;49543;45.892;10.838;2023-01-10T18:58:39;9.98;57.45
63407;SHT31;49543;45.892;10.838;2023-01-10T19:01:06;9.89;57.98
63407;SHT31;49543;45.892;10.838;2023-01-10T19:03:32;9.84;57.62
63407;SHT31;49543;45.892;10.838;2023-01-10T19:05:59;9.80;55.59
63407;SHT31;49543;45.892;10.838;2023-01-10T19:08:26;9.75;55.00
63407;SHT31;49543;45.892;10.838;2023-01-10T19:10:53;9.77;55.85
63407;SHT31;49543;45.892;10.838;2023-01-10T19:13:18;9.72;56.22
63407;SHT31;49543;45.892;10.838;2023-01-10T19:15:44;9.75;56.68
63407;SHT31;49543;45.892;10.838;2023-01-10T19:18:15;9.70;56.53
63407;SHT31;49543;45.892;10.838;2023-01-10T19:20:41;9.59;58.22
63407;SHT31;49543;45.892;10.838;2023-01-10T19:23:07;9.57;58.29
63407;SHT31;49543;45.892;10.838;2023-01-10T19:25:32;9.46;59.62
63407;SHT31;49543;45.892;10.838;2023-01-10T19:28:01;9.46;59.62
63407;SHT31;49543;45.892;10.838;2023-01-10T19:30:27;9.45;59.61
63407;SHT31;49543;45.892;10.838;2023-01-10T19:32:53;9.45;59.43
63407;SHT31;49543;45.892;10.838;2023-01-10T19:35:18;9.35;60.06
63407;SHT31;49543;45.892;10.838;2023-01-10T19:37:44;9.25;60.91
63407;SHT31;49543;45.892;10.838;2023-01-10T19:40:10;9.25;61.26
63407;SHT31;49543;45.892;10.838;2023-01-10T19:42:36;9.19;61.18
63407;SHT31;49543;45.892;10.838;2023-01-10T19:45:03;9.17;61.94
63407;SHT31;49543;45.892;10.838;2023-01-10T19:47:29;9.15;62.28
63407;SHT31;49543;45.892;10.838;2023-01-10T19:49:55;9.11;62.39
63407;SHT31;49543;45.892;10.838;2023-01-10T19:52:20;9.08;62.03
63407;SHT31;49543;45.892;10.838;2023-01-10T19:54:46;9.00;62.44
63407;SHT31;49543;45.892;10.838;2023-01-10T19:57:12;8.96;62.38
63407;SHT31;49543;45.892;10.838;2023-01-10T19:59:38;8.85;64.30
63407;SHT31;49543;45.892;10.838;2023-01-10T20:02:06;8.83;64.95
63407;SHT31;49543;45.892;10.838;2023-01-10T20:04:32;8.85;64.72
63407;SHT31;49543;45.892;10.838;2023-01-10T20:06:57;8.81;61.56
63407;SHT31;49543;45.892;10.838;2023-01-10T20:09:23;8.85;61.13
63407;SHT31;49543;45.892;10.838;2023-01-10T20:11:48;8.88;60.56
63407;SHT31;49543;45.892;10.838;2023-01-10T20:14:19;8.84;61.77
63407;SHT31;49543;45.892;10.838;2023-01-10T20:16:45;8.81;62.33
63407;SHT31;49543;45.892;10.838;2023-01-10T20:19:12;8.85;61.02
63407;SHT31;49543;45.892;10.838;2023-01-10T20:21:39;8.79;62.57
63407;SHT31;49543;45.892;10.838;2023-01-10T20:24:10;8.81;61.48
63407;SHT31;49543;45.892;10.838;2023-01-10T20:26:37;8.84;60.02
63407;SHT31;49543;45.892;10.838;2023-01-10T20:29:05;8.83;61.40
63407;SHT31;49543;45.892;10.838;2023-01-10T20:31:49;8.83;61.02
63407;SHT31;49543;45.892;10.838;2023-01-10T20:34:18;8.84;59.99
63407;SHT31;49543;45.892;10.838;2023-01-10T20:36:44;8.83;59.96
63407;SHT31;49543;45.892;10.838;2023-01-10T20:39:11;8.81;62.13
63407;SHT31;49543;45.892;10.838;2023-01-10T20:41:37;8.73;64.03
63407;SHT31;49543;45.892;10.838;2023-01-10T20:44:02;8.69;63.37
63407;SHT31;49543;45.892;10.838;2023-01-10T20:46:30;8.66;63.36
63407;SHT31;49543;45.892;10.838;2023-01-10T20:48:59;8.57;64.30
63407;SHT31;49543;45.892;10.838;2023-01-10T20:51:30;8.46;65.00
63407;SHT31;49543;45.892;10.838;2023-01-10T20:53:56;8.52;63.72
63407;SHT31;49543;45.892;10.838;2023-01-10T20:56:25;8.50;63.00
63407;SHT31;49543;45.892;10.838;2023-01-10T20:58:51;8.48;63.26
63407;SHT31;49543;45.892;10.838;2023-01-10T21:01:17;8.48;64.16
63407;SHT31;49543;45.892;10.838;2023-01-10T21:03:44;8.48;62.93
63407;SHT31;49543;45.892;10.838;2023-01-10T21:06:10;8.52;59.76
63407;SHT31;49543;45.892;10.838;2023-01-10T21:08:36;8.43;61.41
63407;SHT31;49543;45.892;10.838;2023-01-10T21:11:03;8.41;60.87
63407;SHT31;49543;45.892;10.838;2023-01-10T21:13:28;8.39;61.48
63407;SHT31;49543;45.892;10.838;2023-01-10T21:15:56;8.34;63.28
63407;SHT31;49543;45.892;10.838;2023-01-10T21:18:24;8.31;63.65
63407;SHT31;49543;45.892;10.838;2023-01-10T21:20:55;8.24;63.75
63407;SHT31;49543;45.892;10.838;2023-01-10T21:23:23;8.21;65.16
63407;SHT31;49543;45.892;10.838;2023-01-10T21:25:49;8.17;64.79
63407;SHT31;49543;45.892;10.838;2023-01-10T21:28:15;8.15;63.44
63407;SHT31;49543;45.892;10.838;2023-01-10T21:30:40;8.05;64.46
63407;SHT31;49543;45.892;10.838;2023-01-10T21:33:08;8.09;62.54
63407;SHT31;49543;45.892;10.838;2023-01-10T21:35:33;8.05;62.63
63407;SHT31;49543;45.892;10.838;2023-01-10T21:37:59;8.08;62.09
63407;SHT31;49543;45.892;10.838;2023-01-10T21:40:26;8.15;61.66
63407;SHT31;49543;45.892;10.838;2023-01-10T21:42:53;8.21;61.41
63407;SHT31;49543;45.892;10.838;2023-01-10T21:45:19;8.24;61.74
63407;SHT31;49543;45.892;10.838;2023-01-10T21:47:46;8.25;63.08
63407;SHT31;49543;45.892;10.838;2023-01-10T21:50:12;8.24;61.95
63407;SHT31;49543;45.892;10.838;2023-01-10T21:52:38;8.17;63.71
63407;SHT31;49543;45.892;10.838;2023-01-10T21:55:05;8.18;64.21
63407;SHT31;49543;45.892;10.838;2023-01-10T21:57:31;8.20;61.52
63407;SHT31;49543;45.892;10.838;2023-01-10T21:59:57;8.08;63.18
63407;SHT31;49543;45.892;10.838;2023-01-10T22:02:23;7.94;63.71
63407;SHT31;49543;45.892;10.838;2023-01-10T22:04:52;7.97;63.72
63407;SHT31;49543;45.892;10.838;2023-01-10T22:07:27;8.01;62.76
63407;SHT31;49543;45.892;10.838;2023-01-10T22:09:53;7.98;62.51
63407;SHT31;49543;45.892;10.838;2023-01-10T22:12:20;7.99;62.24
63407;SHT31;49543;45.892;10.838;2023-01-10T22:14:46;7.98;62.42
63407;SHT31;49543;45.892;10.838;2023-01-10T22:17:13;7.98;62.99
63407;SHT31;49543;45.892;10.838;2023-01-10T22:19:39;7.98;63.35
63407;SHT31;49543;45.892;10.838;2023-01-10T22:22:05;7.98;63.53
63407;SHT31;49543;45.892;10.838;2023-01-10T22:24:31;7.95;64.28
63407;SHT31;49543;45.892;10.838;2023-01-10T22:26:57;7.94;63.08
63407;SHT31;49543;45.892;10.838;2023-01-10T22:29:23;7.84;63.97
63407;SHT31;49543;45.892;10.838;2023-01-10T22:31:49;7.80;64.53
63407;SHT31;49543;45.892;10.838;2023-01-10T22:34:15;7.77;64.93
63407;SHT31;49543;45.892;10.838;2023-01-10T22:36:41;7.71;65.72
63407;SHT31;49543;45.892;10.838;2023-01-10T22:39:07;7.66;66.50
63407;SHT31;49543;45.892;10.838;2023-01-10T22:41:33;7.63;66.75
63407;SHT31;49543;45.892;10.838;2023-01-10T22:43:59;7.62;64.82
63407;SHT31;49543;45.892;10.838;2023-01-10T22:46:25;7.63;63.02
63407;SHT31;49543;45.892;10.838;2023-01-10T22:48:51;7.67;64.94
63407;SHT31;49543;45.892;10.838;2023-01-10T22:51:18;7.62;65.97
63407;SHT31;49543;45.892;10.838;2023-01-10T22:53:51;7.62;67.17
63407;SHT31;49543;45.892;10.838;2023-01-10T22:56:17;7.59;68.39
63407;SHT31;49543;45.892;10.838;2023-01-10T22:58:43;7.55;68.17
63407;SHT31;49543;45.892;10.838;2023-01-10T23:01:17;7.49;67.73
63407;SHT31;49543;45.892;10.838;2023-01-10T23:03:43;7.43;66.58
63407;SHT31;49543;45.892;10.838;2023-01-10T23:06:09;7.32;67.20
63407;SHT31;49543;45.892;10.838;2023-01-10T23:08:35;7.23;68.11
63407;SHT31;49543;45.892;10.838;2023-01-10T23:11:01;7.21;67.48
63407;SHT31;49543;45.892;10.838;2023-01-10T23:13:28;7.19;67.51
63407;SHT31;49543;45.892;10.838;2023-01-10T23:16:05;7.31;65.97
63407;SHT31;49543;45.892;10.838;2023-01-10T23:18:32;7.15;66.63
63407;SHT31;49543;45.892;10.838;2023-01-10T23:20:57;7.14;67.00
63407;SHT31;49543;45.892;10.838;2023-01-10T23:23:24;7.09;67.53
63407;SHT31;49543;45.892;10.838;2023-01-10T23:25:50;7.05;66.86
63407;SHT31;49543;45.892;10.838;2023-01-10T23:28:35;7.11;67.05
63407;SHT31;49543;45.892;10.838;2023-01-10T23:31:01;7.09;69.23
63407;SHT31;49543;45.892;10.838;2023-01-10T23:33:26;7.03;69.64
63407;SHT31;49543;45.892;10.838;2023-01-10T23:35:52;7.05;70.35
63407;SHT31;49543;45.892;10.838;2023-01-10T23:38:18;7.03;69.99
63407;SHT31;49543;45.892;10.838;2023-01-10T23:43:18;7.03;69.96
